sensor_id;sensor_type;location;lat;lon;timestamp;P1;durP1;ratioP1;P2;durP2;ratioP2
12908;SDS011;6522;49.622;6.126;2022-07-10T00:01:31;7.90;;;7.40;;
12908;SDS011;6522;49.622;6.126;2022-07-10T00:04:18;7.70;;;7.20;;
12908;SDS011;6522;49.622;6.126;2022-07-10T00:07:07;7.40;;;6.80;;
12908;SDS011;6522;49.622;6.126;2022-07-10T00:09:54;8.60;;;7.72;;
12908;SDS011;6522;49.622;6.126;2022-07-10T00:12:41;8.45;;;7.75;;
12908;SDS011;6522;49.622;6.126;2022-07-10T00:15:27;6.93;;;6.32;;
12908;SDS011;6522;49.622;6.126;2022-07-10T00:18:14;8.23;;;7.72;;
12908;SDS011;6522;49.622;6.126;2022-07-10T00:21:01;8.15;;;7.55;;
12908;SDS011;6522;49.622;6.126;2022-07-10T00:23:48;8.10;;;7.60;;
12908;SDS011;6522;49.622;6.126;2022-07-10T00:26:35;7.80;;;7.20;;
12908;SDS011;6522;49.622;6.126;2022-07-10T00:29:21;6.50;;;5.55;;
12908;SDS011;6522;49.622;6.126;2022-07-10T00:32:08;8.55;;;7.90;;
12908;SDS011;6522;49.622;6.126;2022-07-10T00:34:55;9.73;;;7.78;;
12908;SDS011;6522;49.622;6.126;2022-07-10T00:37:41;8.13;;;7.57;;
12908;SDS011;6522;49.622;6.126;2022-07-10T00:40:28;8.45;;;7.93;;
12908;SDS011;6522;49.622;6.126;2022-07-10T00:43:15;8.07;;;7.05;;
12908;SDS011;6522;49.622;6.126;2022-07-10T00:46:01;8.00;;;7.25;;
12908;SDS011;6522;49.622;6.126;2022-07-10T00:48:48;7.60;;;7.07;;
12908;SDS011;6522;49.622;6.126;2022-07-10T00:51:35;8.70;;;7.55;;
12908;SDS011;6522;49.622;6.126;2022-07-10T00:54:22;8.15;;;7.55;;
12908;SDS011;6522;49.622;6.126;2022-07-10T00:57:08;7.25;;;6.75;;
12908;SDS011;6522;49.622;6.126;2022-07-10T00:59:56;6.82;;;6.43;;
12908;SDS011;6522;49.622;6.126;2022-07-10T01:02:43;8.32;;;7.22;;
12908;SDS011;6522;49.622;6.126;2022-07-10T01:05:29;7.12;;;6.53;;
12908;SDS011;6522;49.622;6.126;2022-07-10T01:08:16;7.72;;;7.03;;
12908;SDS011;6522;49.622;6.126;2022-07-10T01:11:03;8.40;;;7.60;;
12908;SDS011;6522;49.622;6.126;2022-07-10T01:13:50;7.55;;;7.05;;
12908;SDS011;6522;49.622;6.126;2022-07-10T01:16:37;8.23;;;7.72;;
12908;SDS011;6522;49.622;6.126;2022-07-10T01:19:23;7.40;;;7.00;;
12908;SDS011;6522;49.622;6.126;2022-07-10T01:22:10;7.40;;;6.90;;
12908;SDS011;6522;49.622;6.126;2022-07-10T01:24:57;8.73;;;8.10;;
12908;SDS011;6522;49.622;6.126;2022-07-10T01:27:44;8.80;;;8.20;;
12908;SDS011;6522;49.622;6.126;2022-07-10T01:30:30;8.70;;;7.90;;
12908;SDS011;6522;49.622;6.126;2022-07-10T01:33:18;8.23;;;7.72;;
12908;SDS011;6522;49.622;6.126;2022-07-10T01:36:04;9.07;;;8.15;;
12908;SDS011;6522;49.622;6.126;2022-07-10T01:38:51;8.13;;;7.35;;
12908;SDS011;6522;49.622;6.126;2022-07-10T01:41:37;7.40;;;6.80;;
12908;SDS011;6522;49.622;6.126;2022-07-10T01:44:24;8.07;;;7.40;;
12908;SDS011;6522;49.622;6.126;2022-07-10T01:47:11;11.48;;;6.97;;
12908;SDS011;6522;49.622;6.126;2022-07-10T01:49:58;7.72;;;7.22;;
12908;SDS011;6522;49.622;6.126;2022-07-10T01:52:44;7.50;;;7.00;;
12908;SDS011;6522;49.622;6.126;2022-07-10T01:55:31;10.15;;;7.70;;
12908;SDS011;6522;49.622;6.126;2022-07-10T01:58:17;7.37;;;6.85;;
12908;SDS011;6522;49.622;6.126;2022-07-10T02:01:04;7.90;;;7.10;;
12908;SDS011;6522;49.622;6.126;2022-07-10T02:03:51;7.57;;;6.97;;
12908;SDS011;6522;49.622;6.126;2022-07-10T02:06:37;6.93;;;6.43;;
12908;SDS011;6522;49.622;6.126;2022-07-10T02:09:25;7.35;;;6.70;;
12908;SDS011;6522;49.622;6.126;2022-07-10T02:12:12;6.75;;;6.32;;
12908;SDS011;6522;49.622;6.126;2022-07-10T02:14:58;7.15;;;6.55;;
12908;SDS011;6522;49.622;6.126;2022-07-10T02:17:45;6.75;;;6.12;;
12908;SDS011;6522;49.622;6.126;2022-07-10T02:20:31;7.20;;;6.57;;
12908;SDS011;6522;49.622;6.126;2022-07-10T02:23:18;9.35;;;7.18;;
12908;SDS011;6522;49.622;6.126;2022-07-10T02:26:05;6.75;;;6.35;;
12908;SDS011;6522;49.622;6.126;2022-07-10T02:28:52;6.90;;;6.25;;
12908;SDS011;6522;49.622;6.126;2022-07-10T02:31:39;6.80;;;6.20;;
12908;SDS011;6522;49.622;6.126;2022-07-10T02:34:28;6.12;;;5.10;;
12908;SDS011;6522;49.622;6.126;2022-07-10T02:37:15;7.22;;;6.72;;
12908;SDS011;6522;49.622;6.126;2022-07-10T02:40:01;6.82;;;6.28;;
12908;SDS011;6522;49.622;6.126;2022-07-10T02:42:48;6.40;;;5.80;;
12908;SDS011;6522;49.622;6.126;2022-07-10T02:45:35;5.85;;;5.18;;
12908;SDS011;6522;49.622;6.126;2022-07-10T02:48:21;6.87;;;6.18;;
12908;SDS011;6522;49.622;6.126;2022-07-10T02:51:08;7.37;;;6.87;;
12908;SDS011;6522;49.622;6.126;2022-07-10T02:53:55;6.90;;;6.30;;
12908;SDS011;6522;49.622;6.126;2022-07-10T02:56:41;6.43;;;5.82;;
12908;SDS011;6522;49.622;6.126;2022-07-10T02:59:28;8.27;;;6.37;;
12908;SDS011;6522;49.622;6.126;2022-07-10T03:02:15;5.70;;;5.30;;
12908;SDS011;6522;49.622;6.126;2022-07-10T03:05:02;6.75;;;6.20;;
12908;SDS011;6522;49.622;6.126;2022-07-10T03:07:48;6.35;;;5.75;;
12908;SDS011;6522;49.622;6.126;2022-07-10T03:10:35;5.55;;;4.72;;
12908;SDS011;6522;49.622;6.126;2022-07-10T03:13:22;7.32;;;6.30;;
12908;SDS011;6522;49.622;6.126;2022-07-10T03:16:09;6.40;;;5.90;;
12908;SDS011;6522;49.622;6.126;2022-07-10T03:18:56;8.15;;;5.72;;
12908;SDS011;6522;49.622;6.126;2022-07-10T03:21:43;7.28;;;5.35;;
12908;SDS011;6522;49.622;6.126;2022-07-10T03:24:30;10.43;;;5.90;;
12908;SDS011;6522;49.622;6.126;2022-07-10T03:27:16;6.70;;;5.00;;
12908;SDS011;6522;49.622;6.126;2022-07-10T03:30:03;7.80;;;5.47;;
12908;SDS011;6522;49.622;6.126;2022-07-10T03:32:49;6.32;;;5.72;;
12908;SDS011;6522;49.622;6.126;2022-07-10T03:35:36;6.30;;;5.80;;
12908;SDS011;6522;49.622;6.126;2022-07-10T03:38:23;5.62;;;5.22;;
12908;SDS011;6522;49.622;6.126;2022-07-10T03:41:10;7.55;;;5.50;;
12908;SDS011;6522;49.622;6.126;2022-07-10T03:43:56;9.88;;;5.78;;
12908;SDS011;6522;49.622;6.126;2022-07-10T03:46:43;5.12;;;4.72;;
12908;SDS011;6522;49.622;6.126;2022-07-10T03:49:30;6.00;;;5.50;;
12908;SDS011;6522;49.622;6.126;2022-07-10T03:52:16;5.93;;;5.43;;
12908;SDS011;6522;49.622;6.126;2022-07-10T03:55:03;6.10;;;5.60;;
12908;SDS011;6522;49.622;6.126;2022-07-10T03:57:50;9.57;;;5.45;;
12908;SDS011;6522;49.622;6.126;2022-07-10T04:00:39;6.12;;;5.60;;
12908;SDS011;6522;49.622;6.126;2022-07-10T04:03:26;5.95;;;5.45;;
12908;SDS011;6522;49.622;6.126;2022-07-10T04:06:13;4.90;;;4.40;;
12908;SDS011;6522;49.622;6.126;2022-07-10T04:08:59;11.48;;;6.20;;
12908;SDS011;6522;49.622;6.126;2022-07-10T04:11:46;5.75;;;5.25;;
12908;SDS011;6522;49.622;6.126;2022-07-10T04:14:32;5.30;;;4.90;;
12908;SDS011;6522;49.622;6.126;2022-07-10T04:17:19;6.05;;;5.55;;
12908;SDS011;6522;49.622;6.126;2022-07-10T04:20:06;5.00;;;4.60;;
12908;SDS011;6522;49.622;6.126;2022-07-10T04:22:52;5.60;;;5.12;;
12908;SDS011;6522;49.622;6.126;2022-07-10T04:25:39;6.03;;;5.07;;
12908;SDS011;6522;49.622;6.126;2022-07-10T04:28:26;5.40;;;5.00;;
12908;SDS011;6522;49.622;6.126;2022-07-10T04:31:12;5.90;;;5.40;;
12908;SDS011;6522;49.622;6.126;2022-07-10T04:33:59;9.02;;;5.28;;
12908;SDS011;6522;49.622;6.126;2022-07-10T04:36:46;5.45;;;4.95;;
12908;SDS011;6522;49.622;6.126;2022-07-10T04:39:33;9.18;;;5.53;;
12908;SDS011;6522;49.622;6.126;2022-07-10T04:42:19;6.85;;;5.82;;
12908;SDS011;6522;49.622;6.126;2022-07-10T04:45:06;7.03;;;5.07;;
12908;SDS011;6522;49.622;6.126;2022-07-10T04:47:53;5.25;;;4.50;;
12908;SDS011;6522;49.622;6.126;2022-07-10T04:50:40;6.55;;;5.18;;
12908;SDS011;6522;49.622;6.126;2022-07-10T04:53:27;5.85;;;5.35;;
12908;SDS011;6522;49.622;6.126;2022-07-10T04:56:14;5.10;;;4.60;;
12908;SDS011;6522;49.622;6.126;2022-07-10T04:59:01;7.40;;;6.70;;
12908;SDS011;6522;49.622;6.126;2022-07-10T05:01:48;6.43;;;5.85;;
12908;SDS011;6522;49.622;6.126;2022-07-10T05:04:35;7.95;;;5.70;;
12908;SDS011;6522;49.622;6.126;2022-07-10T05:07:21;9.38;;;5.55;;
12908;SDS011;6522;49.622;6.126;2022-07-10T05:10:08;5.35;;;4.95;;
12908;SDS011;6522;49.622;6.126;2022-07-10T05:12:54;6.87;;;5.80;;
12908;SDS011;6522;49.622;6.126;2022-07-10T05:15:41;5.50;;;4.30;;
12908;SDS011;6522;49.622;6.126;2022-07-10T05:18:28;7.07;;;6.47;;
12908;SDS011;6522;49.622;6.126;2022-07-10T05:21:15;10.10;;;6.05;;
12908;SDS011;6522;49.622;6.126;2022-07-10T05:24:02;6.30;;;5.70;;
12908;SDS011;6522;49.622;6.126;2022-07-10T05:26:48;6.40;;;5.80;;
12908;SDS011;6522;49.622;6.126;2022-07-10T05:29:35;6.32;;;5.75;;
12908;SDS011;6522;49.622;6.126;2022-07-10T05:32:21;6.35;;;5.75;;
12908;SDS011;6522;49.622;6.126;2022-07-10T05:35:08;6.30;;;5.70;;
12908;SDS011;6522;49.622;6.126;2022-07-10T05:37:55;5.00;;;4.43;;
12908;SDS011;6522;49.622;6.126;2022-07-10T05:40:42;8.68;;;6.30;;
12908;SDS011;6522;49.622;6.126;2022-07-10T05:43:28;6.72;;;6.12;;
12908;SDS011;6522;49.622;6.126;2022-07-10T05:46:15;8.48;;;6.93;;
12908;SDS011;6522;49.622;6.126;2022-07-10T05:49:02;6.90;;;6.50;;
12908;SDS011;6522;49.622;6.126;2022-07-10T05:51:48;6.68;;;6.28;;
12908;SDS011;6522;49.622;6.126;2022-07-10T05:54:35;6.72;;;6.20;;
12908;SDS011;6522;49.622;6.126;2022-07-10T05:57:22;9.90;;;6.62;;
12908;SDS011;6522;49.622;6.126;2022-07-10T06:00:09;6.72;;;6.32;;
12908;SDS011;6522;49.622;6.126;2022-07-10T06:02:56;8.07;;;5.75;;
12908;SDS011;6522;49.622;6.126;2022-07-10T06:05:43;7.70;;;7.20;;
12908;SDS011;6522;49.622;6.126;2022-07-10T06:08:30;7.47;;;7.07;;
12908;SDS011;6522;49.622;6.126;2022-07-10T06:11:16;8.73;;;8.02;;
12908;SDS011;6522;49.622;6.126;2022-07-10T06:14:03;7.72;;;7.20;;
12908;SDS011;6522;49.622;6.126;2022-07-10T06:16:50;7.68;;;7.10;;
12908;SDS011;6522;49.622;6.126;2022-07-10T06:19:37;6.62;;;6.12;;
12908;SDS011;6522;49.622;6.126;2022-07-10T06:22:23;8.02;;;7.50;;
12908;SDS011;6522;49.622;6.126;2022-07-10T06:25:19;8.82;;;8.23;;
12908;SDS011;6522;49.622;6.126;2022-07-10T06:28:06;9.05;;;8.35;;
12908;SDS011;6522;49.622;6.126;2022-07-10T06:30:53;8.95;;;8.32;;
12908;SDS011;6522;49.622;6.126;2022-07-10T06:33:40;9.10;;;8.25;;
12908;SDS011;6522;49.622;6.126;2022-07-10T06:36:27;9.43;;;8.82;;
12908;SDS011;6522;49.622;6.126;2022-07-10T06:39:13;10.30;;;9.60;;
12908;SDS011;6522;49.622;6.126;2022-07-10T06:42:03;10.00;;;9.40;;
12908;SDS011;6522;49.622;6.126;2022-07-10T06:44:50;10.15;;;9.50;;
12908;SDS011;6522;49.622;6.126;2022-07-10T06:47:37;9.80;;;9.20;;
12908;SDS011;6522;49.622;6.126;2022-07-10T06:50:42;7.72;;;7.12;;
12908;SDS011;6522;49.622;6.126;2022-07-10T06:53:29;11.60;;;10.80;;
12908;SDS011;6522;49.622;6.126;2022-07-10T06:56:16;11.45;;;10.80;;
12908;SDS011;6522;49.622;6.126;2022-07-10T06:59:02;11.30;;;10.70;;
12908;SDS011;6522;49.622;6.126;2022-07-10T07:01:49;10.10;;;9.50;;
12908;SDS011;6522;49.622;6.126;2022-07-10T07:04:36;13.00;;;12.07;;
12908;SDS011;6522;49.622;6.126;2022-07-10T07:07:22;11.80;;;11.20;;
12908;SDS011;6522;49.622;6.126;2022-07-10T07:10:10;12.70;;;11.90;;
12908;SDS011;6522;49.622;6.126;2022-07-10T07:12:56;13.10;;;12.30;;
12908;SDS011;6522;49.622;6.126;2022-07-10T07:15:43;12.63;;;11.93;;
12908;SDS011;6522;49.622;6.126;2022-07-10T07:18:29;11.10;;;10.30;;
12908;SDS011;6522;49.622;6.126;2022-07-10T07:21:19;14.10;;;13.20;;
12908;SDS011;6522;49.622;6.126;2022-07-10T07:24:24;12.95;;;12.02;;
12908;SDS011;6522;49.622;6.126;2022-07-10T07:27:12;14.50;;;13.77;;
12908;SDS011;6522;49.622;6.126;2022-07-10T07:30:01;12.90;;;12.10;;
12908;SDS011;6522;49.622;6.126;2022-07-10T07:32:46;12.70;;;12.00;;
12908;SDS011;6522;49.622;6.126;2022-07-10T07:35:32;12.70;;;11.90;;
12908;SDS011;6522;49.622;6.126;2022-07-10T07:38:19;15.47;;;14.10;;
12908;SDS011;6522;49.622;6.126;2022-07-10T07:41:06;12.13;;;11.43;;
12908;SDS011;6522;49.622;6.126;2022-07-10T07:43:52;15.10;;;14.30;;
12908;SDS011;6522;49.622;6.126;2022-07-10T07:46:39;13.10;;;12.30;;
12908;SDS011;6522;49.622;6.126;2022-07-10T07:49:25;13.70;;;12.70;;
12908;SDS011;6522;49.622;6.126;2022-07-10T07:52:13;15.70;;;14.77;;
12908;SDS011;6522;49.622;6.126;2022-07-10T07:54:59;13.10;;;12.40;;
12908;SDS011;6522;49.622;6.126;2022-07-10T07:57:46;13.00;;;12.20;;
12908;SDS011;6522;49.622;6.126;2022-07-10T08:00:33;15.83;;;15.03;;
12908;SDS011;6522;49.622;6.126;2022-07-10T08:03:19;13.60;;;12.70;;
12908;SDS011;6522;49.622;6.126;2022-07-10T08:06:06;13.60;;;12.80;;
12908;SDS011;6522;49.622;6.126;2022-07-10T08:08:53;16.37;;;15.57;;
12908;SDS011;6522;49.622;6.126;2022-07-10T08:11:40;14.00;;;13.10;;
12908;SDS011;6522;49.622;6.126;2022-07-10T08:14:26;13.60;;;12.80;;
12908;SDS011;6522;49.622;6.126;2022-07-10T08:17:13;15.80;;;14.90;;
12908;SDS011;6522;49.622;6.126;2022-07-10T08:20:01;14.20;;;13.50;;
12908;SDS011;6522;49.622;6.126;2022-07-10T08:22:47;16.20;;;15.20;;
12908;SDS011;6522;49.622;6.126;2022-07-10T08:25:34;14.25;;;13.43;;
12908;SDS011;6522;49.622;6.126;2022-07-10T08:28:21;16.37;;;15.57;;
12908;SDS011;6522;49.622;6.126;2022-07-10T08:31:08;14.70;;;13.80;;
12908;SDS011;6522;49.622;6.126;2022-07-10T08:33:55;17.17;;;15.80;;
12908;SDS011;6522;49.622;6.126;2022-07-10T08:36:42;14.27;;;13.40;;
12908;SDS011;6522;49.622;6.126;2022-07-10T08:39:29;16.10;;;15.30;;
12908;SDS011;6522;49.622;6.126;2022-07-10T08:42:15;14.50;;;13.70;;
12908;SDS011;6522;49.622;6.126;2022-07-10T08:45:02;16.20;;;15.50;;
12908;SDS011;6522;49.622;6.126;2022-07-10T08:47:49;14.30;;;13.50;;
12908;SDS011;6522;49.622;6.126;2022-07-10T08:50:37;16.50;;;15.50;;
12908;SDS011;6522;49.622;6.126;2022-07-10T08:53:23;14.20;;;13.40;;
12908;SDS011;6522;49.622;6.126;2022-07-10T08:56:09;13.62;;;12.80;;
12908;SDS011;6522;49.622;6.126;2022-07-10T08:58:55;16.07;;;15.23;;
12908;SDS011;6522;49.622;6.126;2022-07-10T09:01:42;14.65;;;13.85;;
12908;SDS011;6522;49.622;6.126;2022-07-10T09:04:29;16.87;;;16.07;;
12908;SDS011;6522;49.622;6.126;2022-07-10T09:07:15;17.40;;;16.50;;
12908;SDS011;6522;49.622;6.126;2022-07-10T09:10:06;18.07;;;17.17;;
12908;SDS011;6522;49.622;6.126;2022-07-10T09:12:52;17.97;;;16.80;;
12908;SDS011;6522;49.622;6.126;2022-07-10T09:15:39;17.00;;;16.20;;
12908;SDS011;6522;49.622;6.126;2022-07-10T09:18:25;16.80;;;15.90;;
12908;SDS011;6522;49.622;6.126;2022-07-10T09:21:12;17.50;;;16.60;;
12908;SDS011;6522;49.622;6.126;2022-07-10T09:23:58;17.47;;;16.57;;
12908;SDS011;6522;49.622;6.126;2022-07-10T09:29:52;17.47;;;16.67;;
12908;SDS011;6522;49.622;6.126;2022-07-10T09:32:29;17.27;;;16.37;;
12908;SDS011;6522;49.622;6.126;2022-07-10T09:35:16;17.80;;;16.90;;
12908;SDS011;6522;49.622;6.126;2022-07-10T09:38:21;17.60;;;16.70;;
12908;SDS011;6522;49.622;6.126;2022-07-10T09:44:03;17.70;;;16.80;;
12908;SDS011;6522;49.622;6.126;2022-07-10T09:46:50;16.73;;;15.83;;
12908;SDS011;6522;49.622;6.126;2022-07-10T09:49:37;17.10;;;16.30;;
12908;SDS011;6522;49.622;6.126;2022-07-10T09:52:23;17.13;;;16.30;;
12908;SDS011;6522;49.622;6.126;2022-07-10T09:55:10;17.60;;;16.70;;
12908;SDS011;6522;49.622;6.126;2022-07-10T09:58:00;17.57;;;16.40;;
12908;SDS011;6522;49.622;6.126;2022-07-10T10:00:46;17.70;;;16.63;;
12908;SDS011;6522;49.622;6.126;2022-07-10T10:03:34;17.97;;;17.17;;
12908;SDS011;6522;49.622;6.126;2022-07-10T10:06:20;18.30;;;17.40;;
12908;SDS011;6522;49.622;6.126;2022-07-10T10:09:26;18.00;;;17.20;;
12908;SDS011;6522;49.622;6.126;2022-07-10T10:12:25;18.40;;;17.40;;
12908;SDS011;6522;49.622;6.126;2022-07-10T10:15:10;18.00;;;17.10;;
12908;SDS011;6522;49.622;6.126;2022-07-10T10:17:55;18.03;;;17.13;;
12908;SDS011;6522;49.622;6.126;2022-07-10T10:20:41;17.93;;;17.10;;
12908;SDS011;6522;49.622;6.126;2022-07-10T10:23:28;18.03;;;17.23;;
12908;SDS011;6522;49.622;6.126;2022-07-10T10:26:15;18.00;;;17.10;;
12908;SDS011;6522;49.622;6.126;2022-07-10T10:29:01;18.20;;;17.30;;
12908;SDS011;6522;49.622;6.126;2022-07-10T10:31:48;19.03;;;17.90;;
12908;SDS011;6522;49.622;6.126;2022-07-10T10:34:39;18.60;;;17.47;;
12908;SDS011;6522;49.622;6.126;2022-07-10T10:37:35;17.90;;;16.90;;
12908;SDS011;6522;49.622;6.126;2022-07-10T10:40:31;17.63;;;16.70;;
12908;SDS011;6522;49.622;6.126;2022-07-10T10:43:17;15.30;;;14.50;;
12908;SDS011;6522;49.622;6.126;2022-07-10T10:46:23;17.70;;;16.90;;
12908;SDS011;6522;49.622;6.126;2022-07-10T10:49:09;17.37;;;16.47;;
12908;SDS011;6522;49.622;6.126;2022-07-10T10:57:44;16.80;;;15.80;;
12908;SDS011;6522;49.622;6.126;2022-07-10T11:00:32;17.03;;;16.20;;
12908;SDS011;6522;49.622;6.126;2022-07-10T11:03:22;16.80;;;16.00;;
12908;SDS011;6522;49.622;6.126;2022-07-10T11:06:04;14.50;;;13.70;;
12908;SDS011;6522;49.622;6.126;2022-07-10T11:08:51;17.30;;;16.50;;
12908;SDS011;6522;49.622;6.126;2022-07-10T11:11:37;16.80;;;16.00;;
12908;SDS011;6522;49.622;6.126;2022-07-10T11:14:24;17.07;;;16.10;;
12908;SDS011;6522;49.622;6.126;2022-07-10T11:17:11;17.60;;;16.80;;
12908;SDS011;6522;49.622;6.126;2022-07-10T11:19:57;17.77;;;16.87;;
12908;SDS011;6522;49.622;6.126;2022-07-10T11:25:39;17.40;;;16.50;;
12908;SDS011;6522;49.622;6.126;2022-07-10T11:28:24;17.40;;;16.50;;
12908;SDS011;6522;49.622;6.126;2022-07-10T11:31:11;17.53;;;16.40;;
12908;SDS011;6522;49.622;6.126;2022-07-10T11:33:57;16.73;;;15.90;;
12908;SDS011;6522;49.622;6.126;2022-07-10T11:36:44;16.30;;;15.30;;
12908;SDS011;6522;49.622;6.126;2022-07-10T11:39:31;16.90;;;16.00;;
12908;SDS011;6522;49.622;6.126;2022-07-10T11:42:17;16.73;;;15.93;;
12908;SDS011;6522;49.622;6.126;2022-07-10T11:48:16;16.40;;;15.60;;
12908;SDS011;6522;49.622;6.126;2022-07-10T11:51:02;16.63;;;15.83;;
12908;SDS011;6522;49.622;6.126;2022-07-10T11:53:52;16.77;;;15.97;;
12908;SDS011;6522;49.622;6.126;2022-07-10T11:56:39;16.60;;;15.80;;
12908;SDS011;6522;49.622;6.126;2022-07-10T11:59:26;16.87;;;16.07;;
12908;SDS011;6522;49.622;6.126;2022-07-10T12:02:12;17.17;;;16.37;;
12908;SDS011;6522;49.622;6.126;2022-07-10T12:04:59;15.00;;;14.20;;
12908;SDS011;6522;49.622;6.126;2022-07-10T12:07:45;16.70;;;15.90;;
12908;SDS011;6522;49.622;6.126;2022-07-10T12:10:32;14.52;;;13.77;;
12908;SDS011;6522;49.622;6.126;2022-07-10T12:13:19;16.87;;;15.97;;
12908;SDS011;6522;49.622;6.126;2022-07-10T12:16:05;17.50;;;16.60;;
12908;SDS011;6522;49.622;6.126;2022-07-10T12:18:52;16.97;;;16.17;;
12908;SDS011;6522;49.622;6.126;2022-07-10T12:21:39;16.90;;;16.10;;
12908;SDS011;6522;49.622;6.126;2022-07-10T12:24:25;17.13;;;16.23;;
12908;SDS011;6522;49.622;6.126;2022-07-10T12:27:38;17.40;;;16.50;;
12908;SDS011;6522;49.622;6.126;2022-07-10T12:30:00;18.03;;;16.90;;
12908;SDS011;6522;49.622;6.126;2022-07-10T12:32:46;17.40;;;16.60;;
12908;SDS011;6522;49.622;6.126;2022-07-10T12:35:44;17.57;;;16.70;;
12908;SDS011;6522;49.622;6.126;2022-07-10T12:38:20;17.00;;;16.20;;
12908;SDS011;6522;49.622;6.126;2022-07-10T12:41:10;18.07;;;17.07;;
12908;SDS011;6522;49.622;6.126;2022-07-10T12:43:56;17.53;;;16.63;;
12908;SDS011;6522;49.622;6.126;2022-07-10T12:46:42;17.87;;;17.07;;
12908;SDS011;6522;49.622;6.126;2022-07-10T12:49:30;18.20;;;17.30;;
12908;SDS011;6522;49.622;6.126;2022-07-10T12:52:26;18.90;;;17.90;;
12908;SDS011;6522;49.622;6.126;2022-07-10T12:55:19;17.90;;;17.10;;
12908;SDS011;6522;49.622;6.126;2022-07-10T12:58:06;17.80;;;16.93;;
12908;SDS011;6522;49.622;6.126;2022-07-10T13:00:51;17.30;;;16.47;;
12908;SDS011;6522;49.622;6.126;2022-07-10T13:03:38;17.67;;;16.87;;
12908;SDS011;6522;49.622;6.126;2022-07-10T13:06:25;18.23;;;17.33;;
12908;SDS011;6522;49.622;6.126;2022-07-10T13:09:21;17.97;;;17.07;;
12908;SDS011;6522;49.622;6.126;2022-07-10T13:11:58;17.70;;;16.90;;
12908;SDS011;6522;49.622;6.126;2022-07-10T13:14:45;17.50;;;16.70;;
12908;SDS011;6522;49.622;6.126;2022-07-10T13:17:32;17.60;;;16.70;;
12908;SDS011;6522;49.622;6.126;2022-07-10T13:20:18;18.60;;;17.70;;
12908;SDS011;6522;49.622;6.126;2022-07-10T13:23:05;17.80;;;17.00;;
12908;SDS011;6522;49.622;6.126;2022-07-10T13:25:52;17.90;;;17.00;;
12908;SDS011;6522;49.622;6.126;2022-07-10T13:28:38;17.50;;;16.50;;
12908;SDS011;6522;49.622;6.126;2022-07-10T13:31:25;17.70;;;16.90;;
12908;SDS011;6522;49.622;6.126;2022-07-10T13:34:12;18.07;;;17.17;;
12908;SDS011;6522;49.622;6.126;2022-07-10T13:37:00;18.13;;;16.90;;
12908;SDS011;6522;49.622;6.126;2022-07-10T13:39:45;17.60;;;16.80;;
12908;SDS011;6522;49.622;6.126;2022-07-10T13:42:32;18.27;;;17.27;;
12908;SDS011;6522;49.622;6.126;2022-07-10T13:45:19;17.53;;;16.73;;
12908;SDS011;6522;49.622;6.126;2022-07-10T13:48:06;17.03;;;16.23;;
12908;SDS011;6522;49.622;6.126;2022-07-10T13:50:52;16.90;;;16.20;;
12908;SDS011;6522;49.622;6.126;2022-07-10T13:53:39;17.80;;;16.90;;
12908;SDS011;6522;49.622;6.126;2022-07-10T13:56:26;17.17;;;16.37;;
12908;SDS011;6522;49.622;6.126;2022-07-10T13:59:13;17.30;;;16.50;;
12908;SDS011;6522;49.622;6.126;2022-07-10T14:01:59;17.47;;;16.57;;
12908;SDS011;6522;49.622;6.126;2022-07-10T14:04:47;17.27;;;16.47;;
12908;SDS011;6522;49.622;6.126;2022-07-10T14:07:33;17.43;;;16.63;;
12908;SDS011;6522;49.622;6.126;2022-07-10T14:10:20;15.10;;;14.40;;
12908;SDS011;6522;49.622;6.126;2022-07-10T14:13:07;17.50;;;16.70;;
12908;SDS011;6522;49.622;6.126;2022-07-10T14:15:54;17.03;;;16.23;;
12908;SDS011;6522;49.622;6.126;2022-07-10T14:18:41;17.33;;;16.43;;
12908;SDS011;6522;49.622;6.126;2022-07-10T14:21:27;17.50;;;16.60;;
12908;SDS011;6522;49.622;6.126;2022-07-10T14:24:14;17.20;;;16.40;;
12908;SDS011;6522;49.622;6.126;2022-07-10T14:27:01;16.63;;;15.83;;
12908;SDS011;6522;49.622;6.126;2022-07-10T14:29:48;17.40;;;16.60;;
12908;SDS011;6522;49.622;6.126;2022-07-10T14:32:34;16.77;;;16.07;;
12908;SDS011;6522;49.622;6.126;2022-07-10T14:35:21;17.17;;;16.30;;
12908;SDS011;6522;49.622;6.126;2022-07-10T14:38:08;16.37;;;15.67;;
12908;SDS011;6522;49.622;6.126;2022-07-10T14:40:55;16.10;;;15.30;;
12908;SDS011;6522;49.622;6.126;2022-07-10T14:43:42;16.77;;;15.97;;
12908;SDS011;6522;49.622;6.126;2022-07-10T14:46:29;16.33;;;15.63;;
12908;SDS011;6522;49.622;6.126;2022-07-10T14:49:16;16.87;;;15.87;;
12908;SDS011;6522;49.622;6.126;2022-07-10T14:52:02;16.43;;;15.50;;
12908;SDS011;6522;49.622;6.126;2022-07-10T14:54:49;17.17;;;16.27;;
12908;SDS011;6522;49.622;6.126;2022-07-10T14:57:36;17.00;;;16.23;;
12908;SDS011;6522;49.622;6.126;2022-07-10T15:00:23;17.33;;;16.53;;
12908;SDS011;6522;49.622;6.126;2022-07-10T15:03:09;17.57;;;16.77;;
12908;SDS011;6522;49.622;6.126;2022-07-10T15:05:56;17.13;;;16.33;;
12908;SDS011;6522;49.622;6.126;2022-07-10T15:08:43;17.10;;;16.30;;
12908;SDS011;6522;49.622;6.126;2022-07-10T15:11:30;17.00;;;16.20;;
12908;SDS011;6522;49.622;6.126;2022-07-10T15:14:17;16.67;;;15.87;;
12908;SDS011;6522;49.622;6.126;2022-07-10T15:17:03;18.80;;;18.00;;
12908;SDS011;6522;49.622;6.126;2022-07-10T15:19:50;19.40;;;18.50;;
12908;SDS011;6522;49.622;6.126;2022-07-10T15:22:37;18.77;;;17.73;;
12908;SDS011;6522;49.622;6.126;2022-07-10T15:25:24;19.60;;;18.70;;
12908;SDS011;6522;49.622;6.126;2022-07-10T15:28:11;19.63;;;18.80;;
12908;SDS011;6522;49.622;6.126;2022-07-10T15:30:57;18.70;;;17.90;;
12908;SDS011;6522;49.622;6.126;2022-07-10T15:33:44;20.10;;;19.00;;
12908;SDS011;6522;49.622;6.126;2022-07-10T15:36:31;19.87;;;18.87;;
12908;SDS011;6522;49.622;6.126;2022-07-10T15:39:18;19.00;;;18.20;;
12908;SDS011;6522;49.622;6.126;2022-07-10T15:42:04;19.63;;;18.73;;
12908;SDS011;6522;49.622;6.126;2022-07-10T15:44:51;20.17;;;19.27;;
12908;SDS011;6522;49.622;6.126;2022-07-10T15:47:38;19.50;;;18.60;;
12908;SDS011;6522;49.622;6.126;2022-07-10T15:50:25;19.50;;;18.60;;
12908;SDS011;6522;49.622;6.126;2022-07-10T15:53:12;19.90;;;19.00;;
12908;SDS011;6522;49.622;6.126;2022-07-10T15:55:58;19.90;;;19.10;;
12908;SDS011;6522;49.622;6.126;2022-07-10T15:58:45;19.53;;;18.47;;
12908;SDS011;6522;49.622;6.126;2022-07-10T16:01:32;19.00;;;18.10;;
12908;SDS011;6522;49.622;6.126;2022-07-10T16:04:18;19.27;;;18.37;;
12908;SDS011;6522;49.622;6.126;2022-07-10T16:07:05;19.17;;;18.17;;
12908;SDS011;6522;49.622;6.126;2022-07-10T16:09:52;19.33;;;18.40;;
12908;SDS011;6522;49.622;6.126;2022-07-10T16:12:39;16.70;;;15.70;;
12908;SDS011;6522;49.622;6.126;2022-07-10T16:15:26;19.13;;;18.23;;
12908;SDS011;6522;49.622;6.126;2022-07-10T16:18:12;19.27;;;18.27;;
12908;SDS011;6522;49.622;6.126;2022-07-10T16:20:59;19.10;;;18.20;;
12908;SDS011;6522;49.622;6.126;2022-07-10T16:23:46;18.57;;;17.77;;
12908;SDS011;6522;49.622;6.126;2022-07-10T16:26:33;18.67;;;17.87;;
12908;SDS011;6522;49.622;6.126;2022-07-10T16:29:19;18.70;;;17.90;;
12908;SDS011;6522;49.622;6.126;2022-07-10T16:32:06;18.90;;;18.00;;
12908;SDS011;6522;49.622;6.126;2022-07-10T16:34:53;18.60;;;17.80;;
12908;SDS011;6522;49.622;6.126;2022-07-10T16:37:40;18.50;;;17.70;;
12908;SDS011;6522;49.622;6.126;2022-07-10T16:40:27;18.30;;;17.40;;
12908;SDS011;6522;49.622;6.126;2022-07-10T16:43:13;18.60;;;17.80;;
12908;SDS011;6522;49.622;6.126;2022-07-10T16:46:00;18.33;;;17.53;;
12908;SDS011;6522;49.622;6.126;2022-07-10T16:48:47;18.90;;;18.00;;
12908;SDS011;6522;49.622;6.126;2022-07-10T16:51:34;18.10;;;16.97;;
12908;SDS011;6522;49.622;6.126;2022-07-10T16:54:21;17.63;;;16.83;;
12908;SDS011;6522;49.622;6.126;2022-07-10T16:57:07;18.03;;;17.23;;
12908;SDS011;6522;49.622;6.126;2022-07-10T16:59:54;16.90;;;16.10;;
12908;SDS011;6522;49.622;6.126;2022-07-10T17:02:41;16.97;;;16.00;;